Time;durP1;ratioP1;P1;durP2;ratioP2;P2;SDS_P1;SDS_P2;PMS_P1;PMS_P2;Temp;Humidity;BMP_temperature;BMP_pressure;BME280_temperature;BME280_humidity;BME280_pressure;Samples;Min_cycle;Max_cycle;Signal;HPM_P1;HPM_P2
2023/12/16 00:01:48;;;;;;;18.50;11.27;;;6.70;26.50;;;;;;5040562;22;20577;-68
2023/12/16 00:04:15;;;;;;;18.13;12.70;;;6.60;26.40;;;;;;5030773;28;20462;-67
2023/12/16 00:06:42;;;;;;;18.07;12.80;;;6.60;26.50;;;;;;5043615;28;20459;-68
2023/12/16 00:09:11;;;;;;;17.60;12.23;;;6.60;26.60;;;;;;5043270;28;20458;-68
2023/12/16 00:11:38;;;;;;;19.30;12.60;;;6.60;26.60;;;;;;5041430;28;20474;-67
2023/12/16 00:14:05;;;;;;;18.40;12.07;;;6.60;26.60;;;;;;5043714;28;20889;-67
2023/12/16 00:16:32;;;;;;;18.87;12.37;;;6.60;26.60;;;;;;5046831;28;20458;-67
2023/12/16 00:18:58;;;;;;;15.87;11.27;;;6.70;26.60;;;;;;5048706;28;21021;-67
2023/12/16 00:21:25;;;;;;;24.40;14.17;;;6.70;26.40;;;;;;5039503;28;20557;-67
2023/12/16 00:23:52;;;;;;;18.73;13.07;;;6.70;26.20;;;;;;5041954;28;20504;-67
2023/12/16 00:26:21;;;;;;;16.27;12.13;;;6.70;26.60;;;;;;5047639;28;21000;-67
2023/12/16 00:28:48;;;;;;;18.83;11.60;;;6.60;27.00;;;;;;5043598;28;20545;-67
2023/12/16 00:31:15;;;;;;;16.10;11.27;;;6.50;26.50;;;;;;5041247;28;20566;-67
2023/12/16 00:33:42;;;;;;;18.07;13.33;;;6.40;26.50;;;;;;5041942;28;20558;-67
2023/12/16 00:36:10;;;;;;;17.70;11.87;;;6.40;26.80;;;;;;5042994;28;20541;-67
2023/12/16 00:38:36;;;;;;;20.43;13.17;;;6.30;26.90;;;;;;5045163;28;20545;-67
2023/12/16 00:41:04;;;;;;;19.73;12.50;;;6.30;27.10;;;;;;5045445;28;20474;-68
2023/12/16 00:43:32;;;;;;;15.80;10.60;;;6.30;27.20;;;;;;5045167;28;20854;-68
2023/12/16 00:45:59;;;;;;;19.70;12.87;;;6.30;27.20;;;;;;5041898;28;20534;-67
2023/12/16 00:48:26;;;;;;;20.43;12.13;;;6.40;27.20;;;;;;5044296;28;20458;-67
2023/12/16 00:50:53;;;;;;;16.83;11.93;;;6.40;27.30;;;;;;5042195;28;20462;-67
2023/12/16 00:53:19;;;;;;;23.27;12.67;;;6.40;28.00;;;;;;5045535;28;20560;-68
2023/12/16 00:55:46;;;;;;;18.20;12.03;;;6.40;27.50;;;;;;5044242;28;20533;-68
2023/12/16 00:58:13;;;;;;;17.70;12.07;;;6.40;27.60;;;;;;5039989;28;20462;-67
2023/12/16 01:00:42;;;;;;;18.90;11.97;;;6.40;27.70;;;;;;5040039;28;20481;-68
2023/12/16 01:03:09;;;;;;;16.23;11.90;;;6.40;27.70;;;;;;5044838;28;20478;-68
2023/12/16 01:05:37;;;;;;;17.80;11.60;;;6.40;27.70;;;;;;5043297;28;20461;-68
2023/12/16 01:08:04;;;;;;;19.37;14.10;;;6.50;27.80;;;;;;5042969;28;20977;-67
2023/12/16 01:10:31;;;;;;;20.20;13.23;;;6.50;27.70;;;;;;5043549;28;20445;-68
2023/12/16 01:12:58;;;;;;;18.77;12.60;;;6.50;27.70;;;;;;5050901;28;20609;-67
2023/12/16 01:15:25;;;;;;;20.47;13.20;;;6.50;27.70;;;;;;5062979;28;20488;-67
2023/12/16 01:17:53;;;;;;;19.97;13.00;;;6.50;27.70;;;;;;5043656;28;20516;-68
2023/12/16 01:20:20;;;;;;;19.00;12.33;;;6.50;27.70;;;;;;5040381;28;20513;-67
2023/12/16 01:22:47;;;;;;;16.20;11.43;;;6.60;27.70;;;;;;5041725;28;20556;-68
2023/12/16 01:25:14;;;;;;;18.60;13.20;;;6.60;27.60;;;;;;5044804;28;20549;-67
2023/12/16 01:27:42;;;;;;;17.70;12.40;;;6.60;27.50;;;;;;5044982;28;21017;-67
2023/12/16 01:30:10;;;;;;;18.57;12.20;;;6.60;27.20;;;;;;5044211;28;20457;-68
2023/12/16 01:32:37;;;;;;;15.27;11.17;;;6.60;27.20;;;;;;5043906;28;20494;-67
2023/12/16 01:35:06;;;;;;;17.50;11.83;;;6.60;27.30;;;;;;5042748;28;20472;-67
2023/12/16 01:37:33;;;;;;;18.00;11.73;;;6.60;26.70;;;;;;5046751;28;20476;-67
2023/12/16 01:40:00;;;;;;;17.97;12.07;;;6.60;26.70;;;;;;5044661;28;20931;-68
2023/12/16 01:42:27;;;;;;;19.20;12.53;;;6.50;26.90;;;;;;5040619;28;20569;-67
2023/12/16 01:44:53;;;;;;;20.00;13.07;;;6.50;26.90;;;;;;5045464;28;20504;-68
2023/12/16 01:47:19;;;;;;;18.17;12.00;;;6.50;27.10;;;;;;5042738;28;20486;-68
2023/12/16 01:49:47;;;;;;;18.03;12.77;;;6.50;27.10;;;;;;5042607;28;20617;-67
2023/12/16 01:52:16;;;;;;;21.20;13.70;;;6.50;27.20;;;;;;5042593;28;20522;-67
2023/12/16 01:54:43;;;;;;;23.90;13.53;;;6.40;27.10;;;;;;5039841;28;20490;-68
2023/12/16 01:57:10;;;;;;;20.30;13.00;;;6.40;27.20;;;;;;5045080;28;20472;-67
2023/12/16 01:59:37;;;;;;;18.17;11.37;;;6.40;27.20;;;;;;5045730;28;20461;-68
2023/12/16 02:02:04;;;;;;;19.50;11.20;;;6.40;27.20;;;;;;5041217;28;20993;-67
2023/12/16 02:04:32;;;;;;;20.07;12.70;;;6.40;27.20;;;;;;5045250;28;21277;-68
2023/12/16 02:07:00;;;;;;;18.57;12.00;;;6.40;27.20;;;;;;5046908;28;20462;-68
2023/12/16 02:09:28;;;;;;;19.10;13.13;;;6.30;27.00;;;;;;5042704;28;20473;-68
2023/12/16 02:11:55;;;;;;;22.57;15.37;;;6.30;27.00;;;;;;5046681;28;20478;-67
2023/12/16 02:14:22;;;;;;;24.47;13.37;;;6.30;27.00;;;;;;5047767;28;20593;-67
2023/12/16 02:16:48;;;;;;;18.90;12.47;;;6.30;27.20;;;;;;5049117;28;20490;-68
2023/12/16 02:19:24;;;;;;;18.60;13.20;;;6.30;27.20;;;;;;5046659;28;20505;-67
2023/12/16 02:21:51;;;;;;;19.63;12.07;;;6.30;27.20;;;;;;5049209;28;20530;-67
2023/12/16 02:24:19;;;;;;;19.67;12.50;;;6.20;27.80;;;;;;5049156;28;20462;-67
2023/12/16 02:26:46;;;;;;;22.43;13.63;;;6.20;27.20;;;;;;5044413;28;20541;-68
2023/12/16 02:29:13;;;;;;;19.80;13.00;;;6.20;27.20;;;;;;5045094;28;20556;-67
2023/12/16 02:31:40;;;;;;;22.27;13.37;;;6.20;27.10;;;;;;5048266;28;20481;-68
2023/12/16 02:34:07;;;;;;;17.53;12.20;;;6.20;27.10;;;;;;5046475;28;20460;-67
2023/12/16 02:36:34;;;;;;;19.30;13.07;;;6.20;27.00;;;;;;5048931;28;21058;-67
2023/12/16 02:39:00;;;;;;;21.27;12.60;;;6.20;27.00;;;;;;5039586;28;20465;-67
2023/12/16 02:41:29;;;;;;;18.17;11.90;;;6.30;26.90;;;;;;5048165;28;20484;-68
2023/12/16 02:43:55;;;;;;;18.97;12.53;;;6.30;27.10;;;;;;5049371;28;20458;-68
2023/12/16 02:46:22;;;;;;;20.23;14.40;;;6.30;27.10;;;;;;5045409;28;20458;-68
2023/12/16 02:48:49;;;;;;;22.77;14.00;;;6.30;27.10;;;;;;5047727;28;20466;-68
2023/12/16 02:51:18;;;;;;;21.30;14.00;;;6.30;27.10;;;;;;5044221;28;21147;-67
2023/12/16 02:53:45;;;;;;;17.47;11.80;;;6.30;27.20;;;;;;5047144;28;20477;-67
2023/12/16 02:56:12;;;;;;;20.43;13.43;;;6.30;27.30;;;;;;5043047;28;20458;-67
2023/12/16 02:58:41;;;;;;;22.20;13.83;;;6.30;27.40;;;;;;5045285;28;20469;-67
2023/12/16 03:01:08;;;;;;;20.73;14.80;;;6.30;27.50;;;;;;5046395;28;20529;-67
2023/12/16 03:03:35;;;;;;;19.10;12.80;;;6.30;27.60;;;;;;5043812;28;20839;-67
2023/12/16 03:06:05;;;;;;;20.90;14.00;;;6.30;27.60;;;;;;5045738;28;20553;-67
2023/12/16 03:08:32;;;;;;;19.33;12.83;;;6.30;27.60;;;;;;5047860;28;20954;-67
2023/12/16 03:11:01;;;;;;;21.67;12.57;;;6.30;27.60;;;;;;5046730;28;20461;-67
2023/12/16 03:13:28;;;;;;;23.63;13.00;;;6.30;27.70;;;;;;5046140;28;20573;-68
2023/12/16 03:15:56;;;;;;;21.00;14.30;;;6.30;27.70;;;;;;5046499;28;20537;-67
2023/12/16 03:18:24;;;;;;;22.53;16.33;;;6.30;27.70;;;;;;5046911;28;20549;-67
2023/12/16 03:20:51;;;;;;;21.23;14.33;;;6.30;27.70;;;;;;5047287;28;20535;-68
2023/12/16 03:23:18;;;;;;;18.63;11.90;;;6.30;27.70;;;;;;5048230;28;20482;-67
2023/12/16 03:25:44;;;;;;;18.80;12.83;;;6.40;27.80;;;;;;5048495;28;20797;-67
2023/12/16 03:28:12;;;;;;;17.90;11.53;;;6.30;27.70;;;;;;5047725;28;20466;-67
2023/12/16 03:30:40;;;;;;;21.57;14.80;;;6.30;27.80;;;;;;5045672;28;20466;-67
2023/12/16 03:33:09;;;;;;;18.07;13.00;;;6.30;27.90;;;;;;5043349;28;20512;-67
2023/12/16 03:35:36;;;;;;;18.80;13.30;;;6.30;27.90;;;;;;5044860;28;20462;-67
2023/12/16 03:38:03;;;;;;;21.77;13.23;;;6.30;27.80;;;;;;5048094;28;20450;-67
2023/12/16 03:40:30;;;;;;;21.43;14.37;;;6.30;27.90;;;;;;5044986;28;20976;-67
2023/12/16 03:42:57;;;;;;;18.60;12.80;;;6.30;27.90;;;;;;5043830;28;20917;-68
2023/12/16 03:45:24;;;;;;;17.87;11.97;;;6.30;27.90;;;;;;5047085;28;20489;-67
2023/12/16 03:47:51;;;;;;;21.60;14.00;;;6.30;27.90;;;;;;5048738;28;20462;-67
2023/12/16 03:50:19;;;;;;;19.90;13.27;;;6.20;28.00;;;;;;5047760;28;20454;-67
2023/12/16 03:52:46;;;;;;;20.20;13.83;;;6.30;28.10;;;;;;5041255;28;20848;-67
2023/12/16 03:55:13;;;;;;;22.93;14.40;;;6.30;28.60;;;;;;5047691;28;20468;-68
2023/12/16 03:57:40;;;;;;;20.70;13.80;;;6.20;27.90;;;;;;5046505;28;20464;-67
2023/12/16 04:00:09;;;;;;;18.70;13.53;;;6.30;28.10;;;;;;5048725;28;20458;-67
2023/12/16 04:02:36;;;;;;;19.20;12.90;;;6.20;28.10;;;;;;5047280;28;20495;-67
2023/12/16 04:05:03;;;;;;;18.83;12.20;;;6.20;28.00;;;;;;5055839;28;20525;-67
2023/12/16 04:07:31;;;;;;;19.13;12.80;;;6.20;28.00;;;;;;5044895;28;20467;-67
2023/12/16 04:09:59;;;;;;;21.63;14.20;;;6.20;28.00;;;;;;5044988;28;20978;-68
2023/12/16 04:12:26;;;;;;;20.10;13.27;;;6.20;28.00;;;;;;5044258;28;20478;-68
2023/12/16 04:14:54;;;;;;;18.93;12.70;;;6.20;28.00;;;;;;5043829;28;21126;-68
2023/12/16 04:17:20;;;;;;;18.80;13.30;;;6.20;28.10;;;;;;5046506;28;20462;-68
2023/12/16 04:19:51;;;;;;;19.93;13.40;;;6.20;28.00;;;;;;5044922;28;20446;-68
2023/12/16 04:22:18;;;;;;;17.80;12.80;;;6.20;28.10;;;;;;5045291;28;20982;-68
2023/12/16 04:24:47;;;;;;;20.20;14.10;;;6.10;28.10;;;;;;5046697;28;20466;-68
2023/12/16 04:27:14;;;;;;;19.50;13.87;;;6.10;28.20;;;;;;5045887;28;20452;-68
2023/12/16 04:29:41;;;;;;;17.07;12.63;;;6.10;28.10;;;;;;5044304;28;20458;-68
2023/12/16 04:32:08;;;;;;;19.50;13.87;;;6.10;28.20;;;;;;5042968;28;21013;-67
2023/12/16 04:34:35;;;;;;;24.43;13.53;;;6.10;28.10;;;;;;5046614;28;20454;-68
2023/12/16 04:37:02;;;;;;;21.67;13.70;;;6.10;28.10;;;;;;5047286;28;20460;-67
2023/12/16 04:39:29;;;;;;;21.57;13.73;;;6.10;28.20;;;;;;5047778;28;20469;-67
2023/12/16 04:41:57;;;;;;;19.33;13.67;;;6.10;28.20;;;;;;5045350;28;20486;-67
2023/12/16 04:44:24;;;;;;;21.00;12.97;;;6.10;28.30;;;;;;5044074;28;20459;-67
2023/12/16 04:46:50;;;;;;;21.53;14.80;;;6.10;28.30;;;;;;5045145;28;20492;-68
2023/12/16 04:49:17;;;;;;;18.20;12.50;;;6.10;28.30;;;;;;5041033;28;20870;-68
2023/12/16 04:51:45;;;;;;;21.23;13.57;;;6.10;28.30;;;;;;5043715;28;20478;-68
2023/12/16 04:54:12;;;;;;;22.77;14.30;;;6.10;28.30;;;;;;5044901;28;20446;-68
2023/12/16 04:56:39;;;;;;;21.90;13.60;;;6.10;28.50;;;;;;5042925;28;20854;-68
2023/12/16 04:59:07;;;;;;;21.20;13.83;;;6.00;28.40;;;;;;5046867;28;20464;-68
2023/12/16 05:01:34;;;;;;;22.20;13.97;;;6.00;28.60;;;;;;5044448;28;20549;-68
2023/12/16 05:04:01;;;;;;;18.93;12.53;;;6.00;28.60;;;;;;5042425;28;20474;-68
2023/12/16 05:06:28;;;;;;;23.70;13.93;;;6.00;28.60;;;;;;5040767;28;20501;-68
2023/12/16 05:08:55;;;;;;;23.87;14.97;;;6.00;28.60;;;;;;5044264;28;20456;-67
2023/12/16 05:11:22;;;;;;;21.03;13.97;;;5.90;28.80;;;;;;5043620;28;20958;-67
2023/12/16 05:13:49;;;;;;;23.47;13.90;;;5.90;28.90;;;;;;5045012;28;20557;-68
2023/12/16 05:16:20;;;;;;;23.57;14.23;;;5.90;28.80;;;;;;5046207;28;20806;-67
2023/12/16 05:18:47;;;;;;;23.40;14.97;;;5.90;28.90;;;;;;5045949;28;20459;-68
2023/12/16 05:21:13;;;;;;;21.53;14.47;;;5.90;28.80;;;;;;5042767;28;20972;-67
2023/12/16 05:23:40;;;;;;;22.50;15.20;;;5.90;28.80;;;;;;5041959;28;20486;-68
2023/12/16 05:26:07;;;;;;;20.30;13.60;;;5.90;28.70;;;;;;5044959;28;20458;-67
2023/12/16 05:28:34;;;;;;;23.00;14.07;;;5.90;28.80;;;;;;5043557;28;20484;-67
2023/12/16 05:31:01;;;;;;;22.40;14.83;;;5.90;28.70;;;;;;5044073;28;20472;-68
2023/12/16 05:33:29;;;;;;;23.30;14.93;;;5.90;28.70;;;;;;5042278;28;20469;-68
2023/12/16 05:35:56;;;;;;;20.63;13.20;;;5.90;28.80;;;;;;5045548;28;20458;-67
2023/12/16 05:38:23;;;;;;;21.80;14.73;;;5.80;28.70;;;;;;5042443;28;20465;-67
2023/12/16 05:40:52;;;;;;;18.60;13.00;;;5.80;28.60;;;;;;5045651;28;20462;-67
2023/12/16 05:43:19;;;;;;;19.10;12.73;;;5.80;28.50;;;;;;5043151;28;20509;-67
2023/12/16 05:45:46;;;;;;;19.97;12.60;;;5.60;28.20;;;;;;5050754;28;20461;-67
2023/12/16 05:48:13;;;;;;;20.37;13.50;;;5.60;28.10;;;;;;5051158;28;20460;-67
2023/12/16 05:50:41;;;;;;;21.77;14.20;;;5.60;28.10;;;;;;5045606;28;20453;-67
2023/12/16 05:53:08;;;;;;;22.53;12.63;;;5.50;28.10;;;;;;5049980;28;20474;-68
2023/12/16 05:55:35;;;;;;;21.93;13.23;;;5.50;28.10;;;;;;5048743;28;20468;-68
2023/12/16 05:58:02;;;;;;;22.10;14.43;;;5.50;28.00;;;;;;5047006;28;20458;-68
2023/12/16 06:00:29;;;;;;;18.60;12.80;;;5.50;28.00;;;;;;5044365;28;21243;-68
2023/12/16 06:02:56;;;;;;;21.97;13.57;;;5.40;27.80;;;;;;5051282;22;20483;-63
2023/12/16 06:05:23;;;;;;;22.00;15.60;;;5.30;27.90;;;;;;5031266;28;20473;-63
2023/12/16 06:07:51;;;;;;;23.30;13.30;;;5.30;28.00;;;;;;5026470;28;20486;-63
2023/12/16 06:10:18;;;;;;;24.33;14.60;;;5.30;28.20;;;;;;5026688;28;20493;-65
2023/12/16 06:12:45;;;;;;;22.80;14.43;;;5.20;28.10;;;;;;5028405;28;20489;-63
2023/12/16 06:15:12;;;;;;;22.17;14.63;;;5.20;28.30;;;;;;5025943;28;20467;-63
2023/12/16 06:17:39;;;;;;;23.10;14.27;;;5.20;28.50;;;;;;5027826;28;20550;-63
2023/12/16 06:20:07;;;;;;;22.47;15.40;;;5.10;28.60;;;;;;5028296;28;20938;-63
2023/12/16 06:22:34;;;;;;;25.53;16.27;;;5.10;28.70;;;;;;5030581;28;20505;-63
2023/12/16 06:25:02;;;;;;;25.80;15.90;;;5.00;28.90;;;;;;5025310;28;20485;-63
2023/12/16 06:27:31;;;;;;;22.67;16.00;;;5.00;29.10;;;;;;5030288;28;20538;-63
2023/12/16 06:29:58;;;;;;;25.87;15.93;;;4.90;29.20;;;;;;5026409;28;20491;-63
2023/12/16 06:32:25;;;;;;;23.33;15.57;;;4.90;29.30;;;;;;5024988;28;20471;-66
2023/12/16 06:34:52;;;;;;;26.80;15.20;;;4.90;29.60;;;;;;5027913;28;20462;-64
2023/12/16 06:37:18;;;;;;;25.13;15.70;;;4.80;29.60;;;;;;5029238;28;20822;-65
2023/12/16 06:39:45;;;;;;;31.13;17.97;;;4.90;29.70;;;;;;5027866;28;20466;-65
2023/12/16 06:42:13;;;;;;;26.70;15.40;;;4.80;29.70;;;;;;5029261;28;20478;-64
2023/12/16 06:44:40;;;;;;;33.83;19.20;;;4.80;29.70;;;;;;5030291;28;20470;-63
2023/12/16 06:47:07;;;;;;;28.40;17.40;;;4.80;29.80;;;;;;5029032;28;20516;-63
2023/12/16 06:49:34;;;;;;;28.33;16.57;;;4.80;29.90;;;;;;5028898;28;20950;-63
2023/12/16 06:52:01;;;;;;;22.03;15.57;;;4.70;30.00;;;;;;5027028;28;20475;-63
2023/12/16 06:54:28;;;;;;;22.67;14.57;;;4.80;29.90;;;;;;5025706;28;20985;-63
2023/12/16 06:56:55;;;;;;;25.03;15.03;;;4.80;29.80;;;;;;5025483;28;20886;-63
2023/12/16 06:59:23;;;;;;;24.60;16.40;;;4.80;29.80;;;;;;5026364;28;20470;-63
2023/12/16 07:01:50;;;;;;;26.13;16.27;;;4.80;30.10;;;;;;5023481;28;20553;-63
2023/12/16 07:04:17;;;;;;;39.63;23.57;;;4.80;30.10;;;;;;5028379;28;20462;-63
2023/12/16 07:06:44;;;;;;;34.40;22.20;;;4.80;30.00;;;;;;5023570;28;20471;-63
2023/12/16 07:09:10;;;;;;;37.00;22.30;;;4.70;30.10;;;;;;5027281;28;20459;-63
2023/12/16 07:11:40;;;;;;;40.37;25.73;;;4.70;30.40;;;;;;5025214;28;20478;-63
2023/12/16 07:14:09;;;;;;;44.70;29.90;;;4.60;30.40;;;;;;5025337;28;20474;-63
2023/12/16 07:16:37;;;;;;;43.97;31.33;;;4.60;30.60;;;;;;5027566;28;20460;-62
2023/12/16 07:19:04;;;;;;;35.80;25.23;;;4.70;30.60;;;;;;5028876;28;20455;-63
2023/12/16 07:21:30;;;;;;;41.50;26.77;;;4.70;30.70;;;;;;5029219;28;20526;-63
2023/12/16 07:23:57;;;;;;;45.43;29.10;;;4.70;30.90;;;;;;5023894;28;20485;-64
2023/12/16 07:26:24;;;;;;;53.67;31.60;;;4.70;31.10;;;;;;5021093;28;20493;-63
2023/12/16 07:28:51;;;;;;;33.17;22.13;;;4.70;31.20;;;;;;5028722;28;20454;-63
2023/12/16 07:31:18;;;;;;;31.63;19.93;;;4.70;31.30;;;;;;5022951;28;20577;-63
2023/12/16 07:33:46;;;;;;;35.87;22.73;;;4.70;31.30;;;;;;5027399;28;20451;-62
2023/12/16 07:36:13;;;;;;;34.87;22.17;;;4.70;31.40;;;;;;5023720;28;20467;-65
2023/12/16 07:38:40;;;;;;;29.57;18.80;;;4.70;31.50;;;;;;5027526;28;20455;-65
2023/12/16 07:41:07;;;;;;;27.50;17.70;;;4.70;31.70;;;;;;5025237;28;20463;-63
2023/12/16 07:43:34;;;;;;;28.73;17.73;;;4.70;31.80;;;;;;5024220;28;20885;-64
2023/12/16 07:46:01;;;;;;;30.47;18.13;;;4.80;31.80;;;;;;5025516;28;20462;-63
2023/12/16 07:48:29;;;;;;;30.60;19.40;;;4.80;31.90;;;;;;5027091;28;20477;-65
2023/12/16 07:50:57;;;;;;;28.37;18.70;;;4.90;31.90;;;;;;5021592;28;20802;-65
2023/12/16 07:53:24;;;;;;;27.30;18.03;;;4.90;31.80;;;;;;5024496;28;20480;-65
2023/12/16 07:55:50;;;;;;;26.23;17.10;;;5.00;31.50;;;;;;5024988;28;20454;-65
2023/12/16 07:58:17;;;;;;;28.50;17.47;;;5.20;31.40;;;;;;5022584;28;20465;-65
2023/12/16 08:00:44;;;;;;;27.37;17.70;;;5.40;31.80;;;;;;5023156;28;20470;-63
2023/12/16 08:03:11;;;;;;;28.57;17.30;;;5.70;31.00;;;;;;5027866;28;20570;-65
2023/12/16 08:05:39;;;;;;;27.70;17.13;;;6.10;30.80;;;;;;5026482;28;20465;-65
2023/12/16 08:08:08;;;;;;;27.83;17.20;;;6.80;28.70;;;;;;5023232;28;20567;-65
2023/12/16 08:10:36;;;;;;;29.60;19.07;;;7.50;26.50;;;;;;5027086;28;20454;-64
2023/12/16 08:13:02;;;;;;;26.53;16.30;;;8.10;24.20;;;;;;5022519;28;20554;-65
2023/12/16 08:15:29;;;;;;;24.00;15.77;;;8.50;22.40;;;;;;5024820;28;20451;-65
2023/12/16 08:17:56;;;;;;;22.30;14.60;;;9.00;20.10;;;;;;5029055;28;21367;-65
2023/12/16 08:20:23;;;;;;;19.57;14.17;;;9.40;18.30;;;;;;5026858;28;20466;-65
2023/12/16 08:22:50;;;;;;;17.57;13.00;;;9.80;15.80;;;;;;5025485;28;20495;-63
2023/12/16 08:25:18;;;;;;;20.97;15.20;;;10.10;15.20;;;;;;5025353;28;20463;-65
2023/12/16 08:27:45;;;;;;;22.10;13.87;;;10.10;15.20;;;;;;5028175;28;20474;-65
2023/12/16 08:30:13;;;;;;;19.00;13.80;;;10.10;15.40;;;;;;5027398;28;21171;-65
2023/12/16 08:32:40;;;;;;;23.20;15.03;;;10.10;15.40;;;;;;5025103;28;20479;-64
2023/12/16 08:35:07;;;;;;;21.33;14.90;;;10.10;15.30;;;;;;5023866;28;20827;-64
2023/12/16 08:37:34;;;;;;;21.73;13.70;;;10.40;15.00;;;;;;5027200;28;20463;-64
2023/12/16 08:40:01;;;;;;;18.77;13.97;;;10.70;13.30;;;;;;5023426;28;20491;-64
2023/12/16 08:42:29;;;;;;;21.63;15.10;;;11.00;12.90;;;;;;5026379;28;20483;-65
2023/12/16 08:44:56;;;;;;;25.50;16.27;;;11.30;12.50;;;;;;5023116;28;20471;-64
2023/12/16 08:47:23;;;;;;;23.20;15.30;;;11.60;11.80;;;;;;5020630;28;20459;-64
2023/12/16 08:49:49;;;;;;;24.17;17.90;;;11.80;11.60;;;;;;5022984;28;20455;-65
2023/12/16 08:52:16;;;;;;;20.87;14.50;;;12.00;11.20;;;;;;5023980;28;20490;-65
2023/12/16 08:54:43;;;;;;;20.77;14.63;;;12.20;10.30;;;;;;5025449;28;20467;-65
2023/12/16 08:57:10;;;;;;;22.87;15.50;;;12.40;10.00;;;;;;5022989;28;20454;-65
2023/12/16 08:59:38;;;;;;;23.10;15.00;;;12.50;9.80;;;;;;5028850;28;20463;-65
2023/12/16 09:02:06;;;;;;;20.67;14.23;;;12.60;9.30;;;;;;5022213;28;20501;-64
2023/12/16 09:04:33;;;;;;;17.47;13.90;;;12.70;8.90;;;;;;5026214;28;20495;-64
2023/12/16 09:06:59;;;;;;;19.20;13.90;;;12.80;7.50;;;;;;5024269;28;20466;-64
2023/12/16 09:09:26;;;;;;;19.50;14.43;;;12.80;7.40;;;;;;5023722;28;20467;-65
2023/12/16 09:11:53;;;;;;;15.90;11.17;;;13.00;8.20;;;;;;5026935;28;20479;-65
2023/12/16 09:14:20;;;;;;;16.90;12.90;;;13.00;7.30;;;;;;5024466;28;20465;-64
2023/12/16 09:16:48;;;;;;;14.03;12.53;;;13.20;6.20;;;;;;5019648;28;20471;-64
2023/12/16 09:19:15;;;;;;;17.57;13.30;;;13.40;6.40;;;;;;5017434;28;20811;-64
2023/12/16 09:21:43;;;;;;;19.00;14.27;;;13.70;6.00;;;;;;5020209;28;20903;-64
2023/12/16 09:24:10;;;;;;;16.80;12.10;;;14.20;4.70;;;;;;5021615;28;21095;-64
2023/12/16 09:26:37;;;;;;;17.10;13.43;;;14.80;4.70;;;;;;5025064;28;20471;-65
2023/12/16 09:29:05;;;;;;;17.00;12.80;;;15.10;4.00;;;;;;5026600;28;20469;-65
2023/12/16 09:31:32;;;;;;;16.87;12.93;;;15.10;3.00;;;;;;5026883;28;20506;-64
2023/12/16 09:34:00;;;;;;;16.83;13.30;;;15.00;2.80;;;;;;5021943;28;20462;-65
2023/12/16 09:36:27;;;;;;;16.67;13.03;;;15.00;2.90;;;;;;5024570;28;20546;-65
2023/12/16 09:38:55;;;;;;;15.73;13.00;;;15.00;2.90;;;;;;5028504;28;20463;-65
2023/12/16 09:41:23;;;;;;;17.47;12.97;;;15.00;2.50;;;;;;5028965;28;20470;-65
2023/12/16 09:43:52;;;;;;;15.70;12.13;;;15.00;2.90;;;;;;5027695;28;20488;-65
2023/12/16 09:46:20;;;;;;;17.37;12.27;;;15.20;2.20;;;;;;5025966;28;20485;-65
2023/12/16 09:48:47;;;;;;;16.73;13.30;;;15.40;1.40;;;;;;5026747;28;20946;-64
2023/12/16 09:51:15;;;;;;;15.17;12.60;;;15.60;1.00;;;;;;5027183;28;20463;-64
2023/12/16 09:53:42;;;;;;;15.23;12.50;;;15.80;1.00;;;;;;5024078;28;20474;-64
2023/12/16 09:56:10;;;;;;;15.40;12.70;;;15.80;1.00;;;;;;5027776;28;22010;-64
2023/12/16 09:58:42;;;;;;;15.47;11.60;;;15.90;1.00;;;;;;5028315;28;20459;-64
2023/12/16 10:01:10;;;;;;;16.33;11.73;;;15.80;1.00;;;;;;5025020;28;20528;-64
2023/12/16 10:03:37;;;;;;;16.67;13.23;;;15.80;1.00;;;;;;5024801;28;20496;-64
2023/12/16 10:06:06;;;;;;;15.57;13.10;;;15.80;1.00;;;;;;5026356;28;20462;-65
2023/12/16 10:08:35;;;;;;;14.47;11.67;;;15.80;1.00;;;;;;5024607;28;20481;-64
2023/12/16 10:11:03;;;;;;;15.23;11.93;;;15.80;1.00;;;;;;5024969;28;20454;-65
2023/12/16 10:13:31;;;;;;;18.00;12.57;;;15.80;1.00;;;;;;5025379;28;21102;-64
2023/12/16 10:15:59;;;;;;;19.80;15.60;;;15.80;1.00;;;;;;5025954;28;20494;-64
2023/12/16 10:18:27;;;;;;;13.47;11.23;;;15.80;1.00;;;;;;5026261;28;20463;-64
2023/12/16 10:20:55;;;;;;;16.03;11.03;;;15.90;1.00;;;;;;5026145;28;20459;-64
2023/12/16 10:23:23;;;;;;;12.20;9.30;;;16.00;1.00;;;;;;5026597;28;20522;-64
2023/12/16 10:25:51;;;;;;;12.00;9.30;;;15.90;1.00;;;;;;5026306;28;20939;-65
2023/12/16 10:28:19;;;;;;;10.77;8.57;;;16.00;1.00;;;;;;5025335;28;20846;-65
2023/12/16 10:30:46;;;;;;;11.33;8.40;;;16.10;1.00;;;;;;5028691;28;20469;-65
2023/12/16 10:33:14;;;;;;;10.13;8.00;;;16.20;1.00;;;;;;5029537;28;21229;-65
2023/12/16 10:35:42;;;;;;;11.07;8.00;;;16.30;1.00;;;;;;5026460;28;20545;-65
2023/12/16 10:38:11;;;;;;;10.73;8.10;;;16.30;1.00;;;;;;5030485;28;21010;-65
2023/12/16 10:40:38;;;;;;;11.50;8.90;;;16.50;1.00;;;;;;5021585;28;20470;-65
2023/12/16 10:43:08;;;;;;;10.60;8.00;;;16.50;1.00;;;;;;5044118;23;20857;-66
2023/12/16 10:45:35;;;;;;;10.60;8.87;;;16.60;1.00;;;;;;5029770;28;20462;-66
2023/12/16 10:48:10;;;;;;;11.00;8.00;;;16.60;1.00;;;;;;5028627;28;20463;-66
2023/12/16 10:50:43;;;;;;;12.20;9.20;;;16.60;1.00;;;;;;5024475;28;20470;-66
2023/12/16 10:53:18;;;;;;;10.40;7.80;;;16.70;1.00;;;;;;5025726;28;20482;-66
2023/12/16 10:55:46;;;;;;;9.63;8.07;;;16.80;1.00;;;;;;5029124;28;21009;-66
2023/12/16 10:58:22;;;;;;;9.73;7.43;;;16.80;1.00;;;;;;5029179;28;20555;-67
2023/12/16 11:00:51;;;;;;;10.33;8.50;;;16.90;1.00;;;;;;5027200;28;20481;-66
2023/12/16 11:03:24;;;;;;;10.50;7.27;;;17.00;1.00;;;;;;5026412;28;20486;-66
2023/12/16 11:05:53;;;;;;;10.90;7.70;;;17.10;1.00;;;;;;5027385;28;20462;-66
2023/12/16 11:08:21;;;;;;;9.97;7.20;;;17.10;1.00;;;;;;5026991;28;20469;-66
2023/12/16 11:10:49;;;;;;;26.80;23.70;;;17.10;1.00;;;;;;5028986;28;21001;-66
2023/12/16 11:13:18;;;;;;;10.30;7.00;;;17.20;1.00;;;;;;5027724;28;20471;-66
2023/12/16 11:15:47;;;;;;;11.70;6.10;;;17.20;1.00;;;;;;5028685;28;20463;-66
2023/12/16 11:18:18;;;;;;;8.60;6.20;;;17.40;1.00;;;;;;5026512;28;20458;-66
2023/12/16 11:20:49;;;;;;;9.03;6.37;;;17.50;1.00;;;;;;5028451;28;20462;-66
2023/12/16 11:23:17;;;;;;;9.00;6.63;;;17.50;1.00;;;;;;5028101;28;20566;-67
2023/12/16 11:25:43;;;;;;;8.53;6.50;;;17.70;1.00;;;;;;5029943;28;20478;-66
2023/12/16 11:28:13;;;;;;;9.93;6.17;;;17.90;1.00;;;;;;5030551;28;20467;-66
2023/12/16 11:30:42;;;;;;;9.20;6.33;;;18.20;1.00;;;;;;5025094;28;21044;-66
2023/12/16 11:33:09;;;;;;;8.10;5.40;;;18.60;1.00;;;;;;5024691;28;20498;-66
2023/12/16 11:35:46;;;;;;;6.17;4.30;;;18.80;1.00;;;;;;5028026;28;20529;-66
2023/12/16 11:38:39;;;;;;;6.57;4.17;;;19.00;1.00;;;;;;5028263;28;20469;-65
2023/12/16 11:41:06;;;;;;;8.80;6.17;;;19.40;1.00;;;;;;5026309;28;20566;-67
2023/12/16 11:43:50;;;;;;;7.33;5.60;;;19.70;1.00;;;;;;5026372;28;20586;-66
2023/12/16 11:46:39;;;;;;;8.50;6.20;;;19.90;1.00;;;;;;5026058;28;20469;-66
2023/12/16 11:49:10;;;;;;;6.20;4.60;;;20.10;1.00;;;;;;5028839;28;20473;-67
2023/12/16 11:51:38;;;;;;;5.33;3.27;;;20.10;1.00;;;;;;5026948;28;20572;-67
2023/12/16 11:54:06;;;;;;;7.20;4.57;;;20.10;1.00;;;;;;5027311;28;20462;-67
2023/12/16 11:56:33;;;;;;;7.20;5.17;;;20.20;1.00;;;;;;5027696;28;20473;-66
2023/12/16 11:59:00;;;;;;;6.97;4.40;;;20.30;1.00;;;;;;5025425;28;21017;-66
2023/12/16 12:01:27;;;;;;;7.00;5.00;;;20.50;1.00;;;;;;5035749;28;20567;-67
2023/12/16 12:03:56;;;;;;;6.03;4.03;;;20.60;1.00;;;;;;5037546;28;20550;-67
2023/12/16 12:06:26;;;;;;;5.90;4.40;;;20.60;1.00;;;;;;5027212;28;20466;-67
2023/12/16 12:08:53;;;;;;;6.70;4.50;;;20.70;1.00;;;;;;5024412;28;20562;-67
2023/12/16 12:11:21;;;;;;;6.30;4.93;;;20.80;1.00;;;;;;5026025;28;20459;-67
2023/12/16 12:13:50;;;;;;;8.10;4.53;;;20.80;1.00;;;;;;5026920;28;20554;-66
2023/12/16 12:16:17;;;;;;;7.40;5.00;;;20.80;1.00;;;;;;5028472;28;20866;-67
2023/12/16 12:18:44;;;;;;;6.93;4.60;;;20.80;1.00;;;;;;5027624;28;20558;-66
2023/12/16 12:21:12;;;;;;;6.00;3.90;;;20.80;1.00;;;;;;5029592;28;20518;-68
2023/12/16 12:23:40;;;;;;;9.27;3.03;;;20.50;1.00;;;;;;5025198;28;20918;-67
2023/12/16 12:26:08;;;;;;;4.50;2.20;;;20.30;1.00;;;;;;5030151;28;20960;-67
2023/12/16 12:28:34;;;;;;;4.83;2.40;;;20.10;1.00;;;;;;5025856;28;20959;-67
2023/12/16 12:31:04;;;;;;;4.80;3.00;;;19.80;1.00;;;;;;5026668;28;20478;-67
2023/12/16 12:33:31;;;;;;;5.00;3.17;;;19.60;1.00;;;;;;5026242;28;20490;-66
2023/12/16 12:35:58;;;;;;;7.23;4.90;;;19.50;1.00;;;;;;5021974;28;20835;-66
2023/12/16 12:38:27;;;;;;;6.83;4.13;;;19.50;1.00;;;;;;5029245;28;20462;-67
2023/12/16 12:41:01;;;;;;;6.70;3.77;;;19.40;1.00;;;;;;5026011;28;20471;-66
2023/12/16 12:43:30;;;;;;;5.13;3.13;;;19.10;1.00;;;;;;5024276;28;20482;-67